Airfield :
LOGIN :

Register | Disclaimer

   EN    FR    IT 

 










Legend :    VFR   Marginal VFR   IFR   Intensive IFR   Very Intensive IFR
Visi :
Ceiling :
>= 8 km
>= 3000ft
5 to 8 km
1000 to 3000 ft
1500m to 5 km
500 to 1000 ft
800 to 1500m
200 to 500 ft
< 800m
< 200 ft
Symbols :   Thunderstorms  Fog  Heavy snow  Heavy precipitations  Wind > 20 kt
SIGMETs :     Misc.  Thunderstorms  Icing  Turbulence  Mountain Waves  Volcanic Ashes







- Airport Elevation : 15 ft
- IATA code : FCO


LIRF - Roma Leonardo da Vinci Fiumicino

CURRENT METAR :
  • 141820Z 16006KT 140V200 9999 SCT030 15/11 Q1013 NOSIG

EXPIRED METARs :
  • 141750Z 20008KT 9999 SCT030 15/11 Q1013 NOSIG
  • 141720Z 18006KT 150V210 9999 SCT030 15/10 Q1013 NOSIG
  • 141650Z 21008KT 9999 BKN030 15/10 Q1013 NOSIG
  • 141620Z 20008KT 9999 BKN030 15/10 Q1013 NOSIG
  • 141550Z 21010KT 9999 BKN030 15/10 Q1013 NOSIG

TAF TAF LIRF
Valid from the 14 at 18:00 until the 16 at 00:00 UTC


141700Z 1418/1524 23014KT 9999 BKN030
TEMPO 1503/1509 RA
TEMPO 1509/1518 4000 SHRA
BECMG 1518/1521 30014KT
No reported NOTAMs for that airfield.
1 SIGMET reported for the Roma FIR (LIRR) :
 
Severe turbulence
LIRR SIGMET 8 VALID 141600/142000 LIIB
LIRR ROMA FIR SEV TURB FCST WI N4149 E01305 - N4037 E01521 - N4107 E01507 - N4130 E01416 - N4255 E01301 - N4328 E01312 - N4336 E01053 - N4149 E01305 FL020/100 STNR NC=



MET'MAP, your aeronautical weather chart ! - Copyright ORBIFLY December 2007 - Disclaimer

ORBIFLY MET'MAP TEAM :

Programming & Development : Alexandra Zaïnal
Concept & Development : Baudouin d'Aumeries
Co-Development & Prog : Marc-Olivier Méhu
Technical & hardware support : Manuel Goepfert

Contact : metmap@orbifly.com




SOURCES & CREDITS :

   NOAA